Wetterdaten: Woche 15.01.18 - 21.01.18 (KW3)
Datum Zeit Temperatur Luftfeuchte Luftdruck Niederschlag Windrichtung Sonnenschein Solar Wind
15.01.2018 00:00 -0,5 C 89 % 1022,0 hPa 0,0 l/m SW 0,00 h 0 W/m 6,4 km/h (2 Bft)
15.01.2018 01:00 -0,6 C 90 % 1021,7 hPa 0,0 l/m SW 0,00 h 0 W/m 7,2 km/h (2 Bft)
15.01.2018 02:00 -0,8 C 91 % 1021,6 hPa 0,0 l/m W-SW 0,00 h 0 W/m 9,9 km/h (2 Bft)
15.01.2018 03:00 -0,9 C 92 % 1021,3 hPa 0,0 l/m W-SW 0,00 h 0 W/m 10,6 km/h (2 Bft)
15.01.2018 04:00 -0,9 C 93 % 1021,0 hPa 0,0 l/m W-SW 0,00 h 0 W/m 10,3 km/h (2 Bft)
15.01.2018 05:00 -1,0 C 93 % 1020,8 hPa 0,0 l/m S-SW 0,00 h 0 W/m 11,3 km/h (2 Bft)
15.01.2018 06:00 -1,3 C 93 % 1020,7 hPa 0,0 l/m SW 0,00 h 0 W/m 12,6 km/h (3 Bft)
15.01.2018 07:00 -1,6 C 93 % 1020,6 hPa 0,0 l/m SW 0,00 h 0 W/m 12,5 km/h (3 Bft)
15.01.2018 08:00 -1,7 C 94 % 1020,7 hPa 0,0 l/m SW 0,08 h 17 W/m 10,9 km/h (2 Bft)
15.01.2018 09:00 -1,5 C 94 % 1020,4 hPa 0,0 l/m W-SW 0,08 h 82 W/m 10,6 km/h (2 Bft)
15.01.2018 10:00 -1,2 C 94 % 1020,2 hPa 0,0 l/m SW 0,33 h 149 W/m 11,0 km/h (2 Bft)
15.01.2018 11:00 -0,3 C 92 % 1019,3 hPa 0,0 l/m S-SW 0,83 h 258 W/m 10,6 km/h (2 Bft)
15.01.2018 12:00 0,8 C 89 % 1017,9 hPa 0,0 l/m S-SW 0,25 h 185 W/m 10,3 km/h (2 Bft)
15.01.2018 13:00 1,6 C 85 % 1016,7 hPa 0,0 l/m S-SW 0,00 h 118 W/m 6,8 km/h (2 Bft)
15.01.2018 14:00 1,6 C 84 % 1015,4 hPa 0,0 l/m S-SW 0,00 h 89 W/m 9,1 km/h (2 Bft)
15.01.2018 15:00 1,5 C 86 % 1014,1 hPa 0,0 l/m S-SW 0,00 h 71 W/m 11,6 km/h (2 Bft)
15.01.2018 16:00 1,3 C 87 % 1012,4 hPa 0,0 l/m SW 0,00 h 22 W/m 13,8 km/h (3 Bft)
15.01.2018 17:00 1,2 C 87 % 1011,0 hPa 0,0 l/m SW 0,00 h 0 W/m 14,6 km/h (3 Bft)
15.01.2018 18:00 1,3 C 89 % 1009,6 hPa 0,0 l/m SW 0,00 h 0 W/m 15,0 km/h (3 Bft)
15.01.2018 19:00 4,0 C 83 % 1008,8 hPa 0,0 l/m W-SW 0,00 h 0 W/m 22,6 km/h (4 Bft)
15.01.2018 20:00 3,3 C 83 % 1008,5 hPa 0,2 l/m SW 0,00 h 0 W/m 17,0 km/h (3 Bft)
15.01.2018 21:00 3,4 C 91 % 1007,6 hPa 1,2 l/m SW 0,00 h 0 W/m 29,1 km/h (5 Bft)
15.01.2018 22:00 2,8 C 93 % 1006,7 hPa 1,2 l/m SW 0,00 h 0 W/m 34,6 km/h (5 Bft)
15.01.2018 23:00 2,5 C 95 % 1006,0 hPa 1,0 l/m W-SW 0,00 h 0 W/m 29,0 km/h (5 Bft)
16.01.2018 00:00 2,4 C 95 % 1005,3 hPa 0,2 l/m SW 0,00 h 0 W/m 24,7 km/h (4 Bft)
16.01.2018 01:00 3,1 C 96 % 1004,4 hPa 0,0 l/m W-SW 0,00 h 0 W/m 33,5 km/h (5 Bft)
16.01.2018 02:00 3,7 C 95 % 1003,6 hPa 0,0 l/m W-SW 0,00 h 0 W/m 26,6 km/h (4 Bft)
16.01.2018 03:00 4,5 C 94 % 1002,9 hPa 0,0 l/m W 0,00 h 0 W/m 38,1 km/h (5 Bft)
16.01.2018 04:00 5,1 C 90 % 1002,7 hPa 0,0 l/m W-SW 0,00 h 0 W/m 35,1 km/h (5 Bft)
16.01.2018 05:00 5,1 C 90 % 1001,8 hPa 0,0 l/m W-SW 0,00 h 0 W/m 33,9 km/h (5 Bft)
16.01.2018 06:00 5,0 C 91 % 1000,7 hPa 0,2 l/m W-SW 0,00 h 0 W/m 37,0 km/h (5 Bft)
16.01.2018 07:00 5,2 C 91 % 1000,2 hPa 0,0 l/m W-SW 0,00 h 0 W/m 34,9 km/h (5 Bft)
16.01.2018 08:00 5,5 C 90 % 1000,5 hPa 0,6 l/m W-SW 0,00 h 12 W/m 38,1 km/h (5 Bft)
16.01.2018 09:00 5,3 C 93 % 1000,6 hPa 0,4 l/m W 0,33 h 90 W/m 29,8 km/h (5 Bft)
16.01.2018 10:00 5,6 C 92 % 1000,8 hPa 0,4 l/m W 0,00 h 61 W/m 35,9 km/h (5 Bft)
16.01.2018 11:00 5,5 C 94 % 1000,4 hPa 0,6 l/m W-SW 0,17 h 128 W/m 23,9 km/h (4 Bft)
16.01.2018 12:00 6,1 C 94 % 999,1 hPa 0,6 l/m W-SW 0,08 h 128 W/m 32,7 km/h (5 Bft)
16.01.2018 13:00 6,1 C 92 % 998,3 hPa 0,6 l/m W 0,00 h 74 W/m 39,4 km/h (6 Bft)
16.01.2018 14:00 5,0 C 94 % 998,8 hPa 3,4 l/m W 0,00 h 38 W/m 28,2 km/h (4 Bft)
16.01.2018 15:00 4,7 C 94 % 999,7 hPa 0,8 l/m W 0,00 h 28 W/m 29,4 km/h (5 Bft)
16.01.2018 16:00 4,1 C 94 % 1000,0 hPa 0,0 l/m W-SW 0,08 h 12 W/m 17,6 km/h (3 Bft)
16.01.2018 17:00 4,2 C 95 % 1000,1 hPa 0,0 l/m W 0,00 h 0 W/m 13,9 km/h (3 Bft)
16.01.2018 18:00 4,1 C 94 % 999,9 hPa 0,2 l/m W-SW 0,00 h 0 W/m 6,4 km/h (2 Bft)
16.01.2018 19:00 4,2 C 95 % 999,4 hPa 0,4 l/m SW 0,00 h 0 W/m 22,4 km/h (4 Bft)
16.01.2018 20:00 3,7 C 94 % 999,6 hPa 2,8 l/m W-NW 0,00 h 0 W/m 22,9 km/h (4 Bft)
16.01.2018 21:00 2,7 C 95 % 999,4 hPa 0,6 l/m W 0,00 h 0 W/m 25,3 km/h (4 Bft)
16.01.2018 22:00 2,7 C 95 % 999,2 hPa 0,2 l/m W 0,00 h 0 W/m 21,9 km/h (4 Bft)
16.01.2018 23:00 2,7 C 95 % 999,3 hPa 0,8 l/m W-SW 0,00 h 0 W/m 8,9 km/h (2 Bft)
17.01.2018 00:00 2,5 C 96 % 998,3 hPa 0,8 l/m W-SW 0,00 h 0 W/m 11,3 km/h (2 Bft)
17.01.2018 01:00 2,8 C 96 % 997,5 hPa 3,8 l/m W-SW 0,00 h 0 W/m 24,3 km/h (4 Bft)
17.01.2018 02:00 1,6 C 96 % 997,5 hPa 2,0 l/m W-SW 0,00 h 0 W/m 21,6 km/h (4 Bft)
17.01.2018 03:00 1,7 C 97 % 997,5 hPa 0,2 l/m W-SW 0,00 h 0 W/m 18,2 km/h (3 Bft)
17.01.2018 04:00 2,0 C 97 % 997,6 hPa 0,2 l/m W 0,00 h 0 W/m 18,1 km/h (3 Bft)
17.01.2018 05:00 1,5 C 96 % 997,8 hPa 0,2 l/m W-SW 0,00 h 0 W/m 18,2 km/h (3 Bft)
17.01.2018 06:00 1,2 C 96 % 998,8 hPa 0,0 l/m W-SW 0,00 h 0 W/m 32,0 km/h (5 Bft)
17.01.2018 07:00 0,9 C 96 % 999,8 hPa 0,0 l/m W-SW 0,00 h 0 W/m 18,4 km/h (3 Bft)
17.01.2018 08:00 0,2 C 97 % 1001,2 hPa 0,0 l/m W-NW 0,00 h 12 W/m 27,1 km/h (4 Bft)
17.01.2018 09:00 0,1 C 97 % 1002,3 hPa 0,0 l/m W-NW 0,00 h 39 W/m 12,8 km/h (3 Bft)
17.01.2018 10:00 -0,1 C 97 % 1003,9 hPa 0,2 l/m W-SW 0,00 h 58 W/m 25,6 km/h (4 Bft)
17.01.2018 11:00 0,2 C 96 % 1004,9 hPa 2,2 l/m W-NW 0,00 h 89 W/m 23,6 km/h (4 Bft)
17.01.2018 12:00 0,1 C 94 % 1006,2 hPa 1,2 l/m W-NW 0,33 h 165 W/m 27,1 km/h (4 Bft)
17.01.2018 13:00 0,8 C 87 % 1006,9 hPa 1,6 l/m W-NW 0,75 h 289 W/m 31,2 km/h (5 Bft)
17.01.2018 14:00 1,1 C 83 % 1008,0 hPa 0,0 l/m W-NW 0,83 h 303 W/m 30,6 km/h (5 Bft)
17.01.2018 15:00 0,7 C 88 % 1009,1 hPa 0,2 l/m W-NW 0,25 h 91 W/m 22,8 km/h (4 Bft)
17.01.2018 16:00 -0,1 C 93 % 1010,0 hPa 0,2 l/m W 0,25 h 27 W/m 16,6 km/h (3 Bft)
17.01.2018 17:00 -0,2 C 93 % 1010,8 hPa 0,0 l/m W-SW 0,00 h 0 W/m 21,2 km/h (4 Bft)
17.01.2018 18:00 -0,2 C 93 % 1011,3 hPa 0,0 l/m W 0,00 h 0 W/m 21,3 km/h (4 Bft)
17.01.2018 19:00 0,1 C 94 % 1012,2 hPa 0,4 l/m W-SW 0,00 h 0 W/m 19,2 km/h (3 Bft)
17.01.2018 20:00 -0,1 C 95 % 1012,9 hPa 0,0 l/m W-SW 0,00 h 0 W/m 18,2 km/h (3 Bft)
17.01.2018 21:00 -0,1 C 95 % 1013,5 hPa 0,0 l/m W 0,00 h 0 W/m 14,8 km/h (3 Bft)
17.01.2018 22:00 0,2 C 95 % 1014,1 hPa 0,2 l/m W-SW 0,00 h 0 W/m 17,8 km/h (3 Bft)
17.01.2018 23:00 0,3 C 96 % 1014,1 hPa 0,6 l/m W-SW 0,00 h 0 W/m 19,7 km/h (3 Bft)
18.01.2018 00:00 0,2 C 96 % 1014,1 hPa 0,0 l/m W-SW 0,00 h 0 W/m 20,1 km/h (4 Bft)
18.01.2018 01:00 0,2 C 96 % 1013,9 hPa 0,0 l/m W-SW 0,00 h 0 W/m 24,8 km/h (4 Bft)
18.01.2018 02:00 0,5 C 96 % 1013,9 hPa 0,0 l/m W-SW 0,00 h 0 W/m 26,4 km/h (4 Bft)
18.01.2018 03:00 0,7 C 96 % 1013,7 hPa 0,0 l/m W-SW 0,00 h 0 W/m 26,8 km/h (4 Bft)
18.01.2018 04:00 0,7 C 96 % 1012,7 hPa 0,0 l/m W-SW 0,00 h 0 W/m 24,3 km/h (4 Bft)
18.01.2018 05:00 0,8 C 96 % 1011,6 hPa 0,0 l/m W-SW 0,00 h 0 W/m 31,7 km/h (5 Bft)
18.01.2018 06:00 1,1 C 96 % 1010,4 hPa 0,2 l/m SW 0,00 h 0 W/m 36,1 km/h (5 Bft)
18.01.2018 07:00 1,3 C 96 % 1009,2 hPa 0,2 l/m W-SW 0,00 h 0 W/m 42,7 km/h (6 Bft)
18.01.2018 08:00 1,3 C 95 % 1008,4 hPa 0,4 l/m W-SW 0,00 h 15 W/m 41,0 km/h (6 Bft)
18.01.2018 09:00 1,7 C 95 % 1008,3 hPa 0,0 l/m W 0,00 h 53 W/m 49,0 km/h (6 Bft)
18.01.2018 10:00 2,2 C 95 % 1008,2 hPa 0,0 l/m W-SW 0,00 h 60 W/m 33,5 km/h (5 Bft)
18.01.2018 11:00 2,7 C 95 % 1007,9 hPa 0,0 l/m SW 0,00 h 71 W/m 35,4 km/h (5 Bft)
18.01.2018 12:00 2,9 C 95 % 1006,8 hPa 0,0 l/m W-SW 0,00 h 58 W/m 35,4 km/h (5 Bft)
18.01.2018 13:00 3,5 C 95 % 1005,9 hPa 0,0 l/m SW 0,00 h 70 W/m 45,2 km/h (6 Bft)
18.01.2018 14:00 4,0 C 94 % 1005,1 hPa 0,0 l/m SW 0,00 h 53 W/m 44,8 km/h (6 Bft)
18.01.2018 15:00 4,8 C 92 % 1004,9 hPa 0,0 l/m W-SW 0,00 h 38 W/m 44,0 km/h (6 Bft)
18.01.2018 16:00 5,3 C 91 % 1004,6 hPa 0,2 l/m W-SW 0,00 h 12 W/m 47,8 km/h (6 Bft)
18.01.2018 17:00 5,7 C 90 % 1004,5 hPa 0,0 l/m W-SW 0,00 h 0 W/m 44,5 km/h (6 Bft)
18.01.2018 18:00 5,7 C 90 % 1004,5 hPa 0,2 l/m W 0,00 h 0 W/m 39,6 km/h (6 Bft)
18.01.2018 19:00 5,1 C 93 % 1004,9 hPa 2,0 l/m W-SW 0,00 h 0 W/m 29,2 km/h (5 Bft)
18.01.2018 20:00 4,7 C 94 % 1006,0 hPa 4,0 l/m W 0,00 h 0 W/m 24,4 km/h (4 Bft)
18.01.2018 21:00 4,0 C 95 % 1006,1 hPa 1,4 l/m W 0,00 h 0 W/m 18,1 km/h (3 Bft)
18.01.2018 22:00 3,8 C 96 % 1005,7 hPa 1,6 l/m W-SW 0,00 h 0 W/m 23,3 km/h (4 Bft)
18.01.2018 23:00 3,9 C 96 % 1005,5 hPa 0,6 l/m W 0,00 h 0 W/m 27,4 km/h (4 Bft)
19.01.2018 00:00 3,7 C 95 % 1005,1 hPa 0,0 l/m W 0,00 h 0 W/m 19,0 km/h (3 Bft)
19.01.2018 01:00 3,4 C 95 % 1005,4 hPa 1,2 l/m W-SW 0,00 h 0 W/m 14,8 km/h (3 Bft)
19.01.2018 02:00 3,3 C 96 % 1005,5 hPa 0,4 l/m W-SW 0,00 h 0 W/m 17,2 km/h (3 Bft)
19.01.2018 03:00 3,7 C 96 % 1005,4 hPa 0,2 l/m W-SW 0,00 h 0 W/m 17,6 km/h (3 Bft)
19.01.2018 04:00 4,1 C 96 % 1005,5 hPa 0,0 l/m W 0,00 h 0 W/m 20,2 km/h (4 Bft)
19.01.2018 05:00 3,7 C 94 % 1006,5 hPa 1,0 l/m W 0,00 h 0 W/m 29,4 km/h (5 Bft)
19.01.2018 06:00 2,5 C 94 % 1007,7 hPa 0,4 l/m W-NW 0,00 h 0 W/m 11,9 km/h (2 Bft)
19.01.2018 07:00 2,2 C 94 % 1008,6 hPa 0,2 l/m NW 0,00 h 0 W/m 9,7 km/h (2 Bft)
19.01.2018 08:00 1,9 C 95 % 1009,9 hPa 0,0 l/m W 0,00 h 13 W/m 11,9 km/h (2 Bft)
19.01.2018 09:00 1,6 C 94 % 1010,8 hPa 0,0 l/m W-NW 0,92 h 146 W/m 15,2 km/h (3 Bft)
19.01.2018 10:00 2,6 C 89 % 1011,6 hPa 0,0 l/m W 0,83 h 240 W/m 18,5 km/h (3 Bft)
19.01.2018 11:00 3,7 C 79 % 1012,4 hPa 0,0 l/m W 0,67 h 271 W/m 15,8 km/h (3 Bft)
19.01.2018 12:00 3,9 C 76 % 1011,9 hPa 0,0 l/m W-SW 0,17 h 144 W/m 16,6 km/h (3 Bft)
19.01.2018 13:00 4,5 C 72 % 1011,1 hPa 0,0 l/m W 0,75 h 305 W/m 22,1 km/h (4 Bft)
19.01.2018 14:00 4,4 C 69 % 1010,9 hPa 0,0 l/m W 0,08 h 137 W/m 21,3 km/h (4 Bft)
19.01.2018 15:00 4,1 C 73 % 1011,1 hPa 0,0 l/m W-SW 0,00 h 68 W/m 13,0 km/h (3 Bft)
19.01.2018 16:00 3,7 C 77 % 1011,3 hPa 0,0 l/m SW 0,00 h 15 W/m 9,5 km/h (2 Bft)
19.01.2018 17:00 3,2 C 80 % 1010,9 hPa 0,0 l/m W-SW 0,00 h 0 W/m 18,9 km/h (3 Bft)
19.01.2018 18:00 2,8 C 84 % 1010,9 hPa 0,2 l/m W-SW 0,00 h 0 W/m 18,6 km/h (3 Bft)
19.01.2018 19:00 2,1 C 90 % 1010,7 hPa 0,0 l/m SW 0,00 h 0 W/m 16,6 km/h (3 Bft)
19.01.2018 20:00 1,8 C 93 % 1010,8 hPa 0,0 l/m SW 0,00 h 0 W/m 13,6 km/h (3 Bft)
19.01.2018 21:00 1,4 C 94 % 1011,1 hPa 0,6 l/m SW 0,00 h 0 W/m 10,3 km/h (2 Bft)
19.01.2018 22:00 1,4 C 95 % 1011,8 hPa 0,2 l/m W 0,00 h 0 W/m 6,2 km/h (2 Bft)
19.01.2018 23:00 1,2 C 95 % 1012,6 hPa 0,0 l/m W 0,00 h 0 W/m 10,1 km/h (2 Bft)
20.01.2018 00:00 1,0 C 96 % 1013,2 hPa 0,0 l/m W-SW 0,00 h 0 W/m 10,9 km/h (2 Bft)
20.01.2018 01:00 0,9 C 96 % 1013,5 hPa 0,0 l/m W-SW 0,00 h 0 W/m 12,8 km/h (3 Bft)
20.01.2018 02:00 0,6 C 95 % 1013,9 hPa 0,0 l/m W-SW 0,00 h 0 W/m 17,4 km/h (3 Bft)
20.01.2018 03:00 0,3 C 94 % 1013,5 hPa 0,0 l/m W-SW 0,00 h 0 W/m 13,8 km/h (3 Bft)
20.01.2018 04:00 0,3 C 94 % 1013,2 hPa 0,0 l/m W-SW 0,00 h 0 W/m 18,1 km/h (3 Bft)
20.01.2018 05:00 0,7 C 92 % 1012,8 hPa 0,0 l/m W-SW 0,00 h 0 W/m 23,7 km/h (4 Bft)
20.01.2018 06:00 0,8 C 90 % 1012,4 hPa 0,0 l/m W-SW 0,00 h 0 W/m 24,7 km/h (4 Bft)
20.01.2018 07:00 0,5 C 92 % 1012,2 hPa 0,0 l/m SW 0,00 h 0 W/m 18,8 km/h (3 Bft)
20.01.2018 08:00 0,4 C 94 % 1012,1 hPa 0,0 l/m W-SW 0,00 h 22 W/m 19,7 km/h (3 Bft)
20.01.2018 09:00 0,7 C 95 % 1012,0 hPa 0,0 l/m SW 0,08 h 61 W/m 24,0 km/h (4 Bft)
20.01.2018 10:00 1,0 C 95 % 1011,5 hPa 0,4 l/m SW 0,00 h 84 W/m 18,6 km/h (3 Bft)
20.01.2018 11:00 1,1 C 95 % 1010,6 hPa 0,4 l/m SW 0,00 h 81 W/m 17,3 km/h (3 Bft)
20.01.2018 12:00 1,1 C 96 % 1008,8 hPa 0,2 l/m SW 0,00 h 132 W/m 17,3 km/h (3 Bft)
20.01.2018 13:00 1,7 C 95 % 1006,5 hPa 0,0 l/m SW 0,00 h 141 W/m 15,4 km/h (3 Bft)
20.01.2018 14:00 2,8 C 89 % 1004,3 hPa 0,0 l/m SW 0,00 h 113 W/m 14,1 km/h (3 Bft)
20.01.2018 15:00 3,1 C 84 % 1002,5 hPa 0,0 l/m SW 0,00 h 56 W/m 16,2 km/h (3 Bft)
20.01.2018 16:00 2,7 C 84 % 1000,9 hPa 0,0 l/m SW 0,00 h 9 W/m 15,7 km/h (3 Bft)
20.01.2018 17:00 2,3 C 88 % 999,5 hPa 0,2 l/m SW 0,00 h 0 W/m 11,4 km/h (2 Bft)
20.01.2018 18:00 1,4 C 92 % 998,6 hPa 1,6 l/m SW 0,00 h 0 W/m 8,0 km/h (2 Bft)
20.01.2018 19:00 0,7 C 94 % 998,2 hPa 1,4 l/m SW 0,00 h 0 W/m 7,9 km/h (2 Bft)
20.01.2018 20:00 0,8 C 96 % 998,2 hPa 1,8 l/m W-SW 0,00 h 0 W/m 11,6 km/h (2 Bft)
20.01.2018 21:00 1,4 C 97 % 998,3 hPa 0,0 l/m W-SW 0,00 h 0 W/m 9,3 km/h (2 Bft)
20.01.2018 22:00 2,3 C 97 % 997,8 hPa 1,0 l/m W 0,00 h 0 W/m 13,6 km/h (3 Bft)
20.01.2018 23:00 2,7 C 97 % 998,1 hPa 0,2 l/m W 0,00 h 0 W/m 4,9 km/h (1 Bft)
21.01.2018 00:00 2,8 C 98 % 998,9 hPa 0,6 l/m W 0,00 h 0 W/m 3,1 km/h (1 Bft)
21.01.2018 01:00 2,5 C 98 % 1000,0 hPa 0,0 l/m W-NW 0,00 h 0 W/m 13,0 km/h (3 Bft)
21.01.2018 02:00 1,9 C 97 % 1001,8 hPa 0,0 l/m NW 0,00 h 0 W/m 9,8 km/h (2 Bft)
21.01.2018 03:00 1,6 C 97 % 1003,5 hPa 0,0 l/m NW 0,00 h 0 W/m 6,7 km/h (2 Bft)
21.01.2018 04:00 1,3 C 97 % 1004,8 hPa 0,0 l/m W-NW 0,00 h 0 W/m 11,1 km/h (2 Bft)
21.01.2018 05:00 1,3 C 97 % 1006,1 hPa 0,0 l/m W 0,00 h 0 W/m 8,8 km/h (2 Bft)
21.01.2018 06:00 1,2 C 97 % 1007,4 hPa 0,0 l/m W 0,00 h 0 W/m 3,2 km/h (1 Bft)
21.01.2018 07:00 1,3 C 97 % 1009,0 hPa 0,0 l/m N-NW 0,00 h 0 W/m 13,2 km/h (3 Bft)
21.01.2018 08:00 0,9 C 96 % 1010,9 hPa 0,0 l/m N-NW 0,00 h 15 W/m 14,1 km/h (3 Bft)
21.01.2018 09:00 0,7 C 96 % 1012,5 hPa 0,0 l/m W-NW 0,42 h 111 W/m 7,8 km/h (2 Bft)
21.01.2018 10:00 1,5 C 92 % 1013,8 hPa 0,0 l/m W-NW 1,00 h 290 W/m 15,4 km/h (3 Bft)
21.01.2018 11:00 2,6 C 85 % 1014,9 hPa 0,0 l/m W-NW 0,83 h 372 W/m 22,5 km/h (4 Bft)
21.01.2018 12:00 2,0 C 83 % 1015,6 hPa 0,0 l/m NW 0,33 h 263 W/m 14,1 km/h (3 Bft)
21.01.2018 13:00 2,3 C 79 % 1016,2 hPa 0,0 l/m W-NW 0,25 h 226 W/m 15,4 km/h (3 Bft)
21.01.2018 14:00 1,8 C 77 % 1016,5 hPa 0,0 l/m W-NW 0,08 h 111 W/m 12,2 km/h (2 Bft)
21.01.2018 15:00 1,5 C 77 % 1017,4 hPa 0,0 l/m W-NW 0,00 h 78 W/m 4,4 km/h (1 Bft)
21.01.2018 16:00 1,3 C 80 % 1017,8 hPa 0,0 l/m W-NW 0,00 h 27 W/m 5,6 km/h (1 Bft)
21.01.2018 17:00 0,7 C 81 % 1018,0 hPa 0,0 l/m W-NW 0,00 h 0 W/m 1,2 km/h (1 Bft)
21.01.2018 18:00 0,1 C 83 % 1018,1 hPa 0,0 l/m N 0,00 h 0 W/m 0,0 km/h (0 Bft)
21.01.2018 19:00 -0,3 C 88 % 1017,9 hPa 0,0 l/m N 0,00 h 0 W/m 0,0 km/h (0 Bft)
21.01.2018 20:00 -0,4 C 89 % 1017,5 hPa 0,0 l/m N 0,00 h 0 W/m 0,0 km/h (0 Bft)
21.01.2018 21:00 -0,4 C 90 % 1017,2 hPa 0,0 l/m W 0,00 h 0 W/m 0,0 km/h (0 Bft)
21.01.2018 22:00 -0,1 C 92 % 1016,7 hPa 0,0 l/m SW 0,00 h 0 W/m 12,0 km/h (2 Bft)
21.01.2018 23:00 0,1 C 94 % 1015,5 hPa 0,4 l/m S-SW 0,00 h 0 W/m 8,7 km/h (2 Bft)
Min-Datum _ 15.01.18 19.01.18 17.01.18 - - - - 15.01.18
_ Min-Zeit 08:05 14:00 02:20 - - - - 00:15
Minimum _ -1,7 C 67 % 997,1 hPa - - - - 0,0 km/h (0 Bft)
Max-Datum _ 16.01.18 18.01.18 15.01.18 18.01.18 - 15.01.18 21.01.18 17.01.18
_ Max-Zeit 12:55 11:10 00:00 20:30 - 08:20 13:05 06:45
Maximum _ 6,3 C 100 % 1022,1 hPa 4,0 l/m - 0,08 h 536 W/m 57,9 km/h
W (7 Bft)
Durchschnitt _ 2,0 C 92 % 1008,4 hPa #53,8 l/m W-SW #11:05 h 105 W/m 19,5 km/h (3 Bft)